Terminal Aerodrome Forecast
Issued by NWS Green Bay, WI

Home | Current Version | Previous Version | Graphics & Text | Print | Product List | Glossary On
Versions: 1 2 3 4 5 6 7 8 9 10 11 12 13 14 15 16 17 18 19 20 21 22 23 24 25 26 27 28 29 30 31 32 33 34 35 36 37 38
000
FTUS43 KGRB 271725
TAFGRB
TAF
KGRB 271725Z 2718/2818 27008KT P6SM SCT060 SCT200
     FM280200 20005KT P6SM FEW250
     FM281200 19008KT P6SM BKN200 PROB30 2812/2814 6SM -TSRA
      SCT050CB BKN120
     FM281400 18012G22KT P6SM -TSRA SCT045CB BKN080
      TEMPO 2815/2818 3SM TSRA OVC035CB=

USA.gov is the U.S. government's official web portal to all federal, state and local government web resources and services.